Flight Number: EUR2340 Duration: 3:00
Departure: Antalya (LTAI) at 06:00 Distance: 1080 Nm
Arrival: Munich Int'l (EDDM) at 09:00 Equipment: A321

Weather Information
Antalya, Turkey (LTAI) 36-42N 030-44E 57M Nov 19, 2017 - 10:50 PM EST / 2017.11.20 0350 UTC
Wind: from the WNW (290 degrees) at 2 MPH (2 KT):0
Visibility: greater than 7 mile(s):0
Sky conditions: mostly cloudy Weather: Cumulonimbus clouds observed Temperature: 53 F (12 C) Dew Point: 51 F (11 C) Relative Humidity: 93% Pressure (altimeter): 29.85 in. Hg (1011 hPa)
ob: LTAI 200350Z 29002KT 9999 FEW020CB BKN030 12/11 Q1011 BECMG -TSRA TEMPO 4000 TSRA cycle: 4
Sunrise: 04:44 Sunset: 14:41 (UTC)

Munchen, Germany (EDDM) 48-21N 011-47E Nov 19, 2017 - 10:50 PM EST / 2017.11.20 0350 UTC
Wind: from the W (260 degrees) at 14 MPH (12 KT):0
Visibility: greater than 7 mile(s):0 Temperature: 35 F (2 C)
Windchill: 26 F (-3 C):1 Dew Point: 30 F (-1 C) Relative Humidity: 80% Pressure (altimeter): 30.15 in. Hg (1021 hPa)
ob: EDDM 200350Z 26012KT CAVOK 02/M01 Q1021 NOSIG cycle: 4
Sunrise: 06:32 Sunset: 15:24 (UTC)

TAF:2017/11/19 18:27 TAF EDDM 191700Z 1918/2024 26013KT 9999 FEW014 BKN040 TEMPO 1918/2003 31015G25KT PROB30 TEMPO 1918/2003 2000 SHSNRA BKN014CB BECMG 2015/2018 23007KT TEMPO 2018/2024 RA BECMG 2021/2024 25015G25KT

Previous Pireps for this route
Date Aircraft Flight time Fuel used Landing rate On time
2015-01-07A32102.5417912-205Charter
2016-01-18A32103.0616984-2No
2016-04-05A32103.3526587-465.38No
2016-09-30A330-20002.3440823-171Charter
(pireps marked green are flown by you)

Route map